Time;durP1;ratioP1;P1;durP2;ratioP2;P2;SDS_P1;SDS_P2;PMS_P1;PMS_P2;Temp;Humidity;BMP_temperature;BMP_pressure;BME280_temperature;BME280_humidity;BME280_pressure;Samples;Min_cycle;Max_cycle;Signal;HPM_P1;HPM_P2
2023/03/06 00:03:27;;;;;;;5.87;3.50;;;1.60;99.90;;;;;;7807566;28;20206;-88
2023/03/06 00:07:12;;;;;;;6.17;3.63;;;1.60;99.90;;;;;;7818081;28;20222;-88
2023/03/06 00:10:58;;;;;;;7.13;3.87;;;1.60;99.90;;;;;;7823873;28;20189;-88
2023/03/06 00:14:44;;;;;;;5.77;3.70;;;1.60;99.90;;;;;;7827722;28;20207;-88
2023/03/06 00:18:29;;;;;;;6.47;4.07;;;1.60;99.90;;;;;;7825594;28;20217;-88
2023/03/06 00:22:15;;;;;;;9.60;4.13;;;1.60;99.90;;;;;;7830867;28;20687;-88
2023/03/06 00:26:01;;;;;;;9.57;4.80;;;1.60;99.90;;;;;;7821283;28;20752;-88
2023/03/06 00:29:49;;;;;;;7.13;4.20;;;1.60;99.90;;;;;;7835201;28;20206;-88
2023/03/06 00:33:35;;;;;;;8.10;3.67;;;1.60;99.90;;;;;;7829108;28;20687;-88
2023/03/06 00:37:22;;;;;;;7.90;3.87;;;1.60;99.90;;;;;;7837925;28;20587;-88
2023/03/06 00:41:10;;;;;;;9.23;4.23;;;1.60;99.90;;;;;;7832227;28;20235;-88
2023/03/06 00:44:55;;;;;;;7.63;4.37;;;1.70;99.90;;;;;;7835210;28;20558;-88
2023/03/06 00:48:42;;;;;;;8.73;4.27;;;1.90;99.90;;;;;;7829947;28;20232;-88
2023/03/06 00:52:28;;;;;;;6.70;4.10;;;1.60;99.90;;;;;;7826424;28;20280;-88
2023/03/06 00:56:13;;;;;;;7.17;4.53;;;1.60;99.90;;;;;;7827566;28;20186;-88
2023/03/06 00:59:59;;;;;;;7.43;4.83;;;1.60;99.90;;;;;;7831375;28;21701;-88
2023/03/06 01:03:44;;;;;;;8.50;4.63;;;1.60;99.90;;;;;;7826582;28;20237;-89
2023/03/06 01:07:32;;;;;;;8.60;4.50;;;1.60;99.90;;;;;;7828467;28;20706;-88
2023/03/06 01:11:18;;;;;;;7.67;4.50;;;1.70;99.90;;;;;;7823237;28;20273;-88
2023/03/06 01:15:04;;;;;;;8.83;4.60;;;1.60;99.90;;;;;;7834719;28;20263;-88
2023/03/06 01:18:50;;;;;;;8.90;4.87;;;1.60;99.90;;;;;;7840189;28;20189;-89
2023/03/06 01:22:36;;;;;;;7.47;4.57;;;1.70;99.90;;;;;;7826622;28;20209;-88
2023/03/06 01:26:21;;;;;;;8.37;4.50;;;1.70;99.90;;;;;;7827667;28;20210;-88
2023/03/06 01:30:08;;;;;;;8.23;4.57;;;1.60;99.90;;;;;;7825107;28;20216;-89
2023/03/06 01:33:53;;;;;;;8.97;4.70;;;1.60;99.90;;;;;;7831099;28;20239;-88
2023/03/06 01:37:39;;;;;;;8.37;4.80;;;1.60;99.90;;;;;;7824465;28;20186;-88
2023/03/06 01:41:25;;;;;;;11.27;4.63;;;1.60;99.90;;;;;;7822584;28;20174;-88
2023/03/06 01:45:14;;;;;;;7.13;4.50;;;1.30;99.90;;;;;;7855371;28;20222;-89
2023/03/06 01:49:15;;;;;;;9.10;4.83;;;1.60;99.90;;;;;;7835988;28;20318;-88
2023/03/06 01:53:00;;;;;;;9.33;5.10;;;1.60;99.90;;;;;;7810632;28;20210;-88
2023/03/06 01:56:49;;;;;;;8.57;4.97;;;1.50;99.90;;;;;;7810327;28;20208;-88
2023/03/06 02:00:36;;;;;;;10.17;5.63;;;1.50;99.90;;;;;;7810296;28;20189;-87
2023/03/06 02:04:22;;;;;;;12.30;5.10;;;1.60;99.90;;;;;;7840468;28;20612;-88
2023/03/06 02:08:11;;;;;;;9.97;4.67;;;1.50;99.90;;;;;;7840697;28;20209;-87
2023/03/06 02:11:58;;;;;;;9.23;5.37;;;1.50;99.90;;;;;;7822804;28;20178;-87
2023/03/06 02:15:44;;;;;;;9.43;5.27;;;1.50;99.90;;;;;;7830337;28;20553;-87
2023/03/06 02:19:54;;;;;;;8.43;4.70;;;1.50;99.90;;;;;;7823720;28;20209;-87
2023/03/06 02:24:04;;;;;;;9.77;5.23;;;1.50;99.90;;;;;;7810544;28;20202;-88
2023/03/06 02:27:50;;;;;;;9.50;5.10;;;1.40;99.90;;;;;;7829431;28;20209;-88
2023/03/06 02:31:35;;;;;;;11.00;5.53;;;1.40;99.90;;;;;;7821869;28;20705;-88
2023/03/06 02:35:24;;;;;;;9.77;5.50;;;1.50;99.90;;;;;;7809009;28;20199;-87
2023/03/06 02:39:12;;;;;;;8.10;4.90;;;1.40;99.90;;;;;;7830831;28;20223;-88
2023/03/06 02:42:58;;;;;;;10.03;5.07;;;1.40;99.90;;;;;;7840712;28;20202;-87
2023/03/06 02:46:43;;;;;;;10.20;5.70;;;1.50;99.90;;;;;;7840651;28;20604;-87
2023/03/06 02:50:30;;;;;;;10.43;5.73;;;1.50;99.90;;;;;;7835283;28;20198;-88
2023/03/06 02:54:17;;;;;;;11.40;5.40;;;1.40;99.90;;;;;;7815140;28;20209;-88
2023/03/06 02:58:03;;;;;;;11.37;6.23;;;1.50;99.90;;;;;;7836185;28;20269;-87
2023/03/06 03:01:49;;;;;;;12.73;6.47;;;1.50;99.90;;;;;;7819197;28;20195;-88
2023/03/06 03:05:34;;;;;;;11.10;5.97;;;1.50;99.90;;;;;;7826545;28;20202;-88
2023/03/06 03:09:20;;;;;;;14.27;6.07;;;1.50;99.90;;;;;;7838735;28;20217;-88
2023/03/06 03:13:06;;;;;;;14.47;6.40;;;1.40;99.90;;;;;;7840396;28;20671;-88
2023/03/06 03:16:51;;;;;;;10.57;5.83;;;1.60;99.90;;;;;;7836446;28;20188;-88
2023/03/06 03:20:41;;;;;;;12.67;5.87;;;1.40;99.90;;;;;;7837322;28;20186;-87
2023/03/06 03:24:27;;;;;;;11.17;5.63;;;1.40;99.90;;;;;;7808761;28;20199;-88
2023/03/06 03:28:14;;;;;;;13.57;6.33;;;1.50;99.90;;;;;;7831824;28;20262;-88
2023/03/06 03:31:59;;;;;;;10.13;5.87;;;1.40;99.90;;;;;;7815263;28;20616;-88
2023/03/06 03:35:45;;;;;;;10.40;5.80;;;1.40;99.90;;;;;;7807265;28;20260;-88
2023/03/06 03:39:31;;;;;;;9.97;5.70;;;1.40;99.90;;;;;;7823562;28;20656;-87
2023/03/06 03:43:17;;;;;;;10.23;5.80;;;1.30;99.90;;;;;;7852679;28;20192;-89
2023/03/06 03:47:03;;;;;;;11.83;6.37;;;1.30;99.90;;;;;;7878464;28;20190;-87
2023/03/06 03:50:49;;;;;;;11.30;6.13;;;1.30;99.90;;;;;;7845596;28;20182;-88
2023/03/06 03:54:36;;;;;;;14.47;6.60;;;1.30;99.90;;;;;;7828877;28;20546;-88
2023/03/06 03:58:21;;;;;;;10.90;6.20;;;1.20;99.90;;;;;;7821154;28;20178;-87
2023/03/06 04:02:07;;;;;;;11.90;6.20;;;1.30;99.90;;;;;;7853594;28;20193;-87
2023/03/06 04:05:54;;;;;;;11.87;6.73;;;1.10;99.90;;;;;;7844110;28;20265;-87
2023/03/06 04:09:40;;;;;;;13.27;6.33;;;1.10;99.90;;;;;;7830879;28;20690;-88
2023/03/06 04:13:25;;;;;;;11.30;6.07;;;1.10;99.90;;;;;;7817950;28;20548;-87
2023/03/06 04:17:11;;;;;;;11.03;6.07;;;1.10;99.90;;;;;;7827050;28;20281;-88
2023/03/06 04:20:57;;;;;;;12.17;6.47;;;1.10;99.90;;;;;;7843645;28;20589;-87
2023/03/06 04:24:43;;;;;;;11.40;5.90;;;1.10;99.90;;;;;;7836356;28;20660;-87
2023/03/06 04:28:28;;;;;;;12.03;6.43;;;1.10;99.90;;;;;;7811922;28;20268;-87
2023/03/06 04:32:14;;;;;;;10.20;6.17;;;1.00;99.90;;;;;;7826293;28;20544;-87
2023/03/06 04:36:00;;;;;;;11.27;6.00;;;1.00;99.90;;;;;;7833410;28;20179;-87
2023/03/06 04:39:46;;;;;;;14.40;6.23;;;1.10;99.90;;;;;;7811765;28;20284;-87
2023/03/06 04:43:31;;;;;;;13.53;6.57;;;1.10;99.90;;;;;;7840661;28;20651;-87
2023/03/06 04:47:17;;;;;;;10.73;6.20;;;1.00;99.90;;;;;;7827803;28;20259;-81
2023/03/06 04:51:03;;;;;;;13.00;6.60;;;1.00;99.90;;;;;;7830385;28;20231;-87
2023/03/06 04:54:49;;;;;;;11.30;6.33;;;0.90;99.90;;;;;;7825328;28;20709;-87
2023/03/06 04:58:36;;;;;;;11.23;6.33;;;0.90;99.90;;;;;;7842635;28;20181;-88
2023/03/06 05:02:28;;;;;;;10.73;5.77;;;0.90;99.90;;;;;;7841847;28;20255;-88
2023/03/06 05:06:14;;;;;;;13.10;6.50;;;0.80;99.90;;;;;;7841399;28;20167;-87
2023/03/06 05:10:00;;;;;;;13.97;5.93;;;0.80;99.90;;;;;;7836956;28;20293;-87
2023/03/06 05:13:46;;;;;;;13.93;5.93;;;0.80;99.90;;;;;;7837775;28;20217;-87
2023/03/06 05:17:33;;;;;;;11.10;6.37;;;0.80;99.90;;;;;;7833738;28;20805;-87
2023/03/06 05:21:19;;;;;;;13.87;6.97;;;0.80;99.90;;;;;;7842783;28;20624;-88
2023/03/06 05:25:05;;;;;;;12.13;5.90;;;0.90;99.90;;;;;;7843164;28;20572;-87
2023/03/06 05:28:51;;;;;;;11.50;6.17;;;0.70;99.90;;;;;;7819216;28;20348;-87
2023/03/06 05:32:37;;;;;;;13.00;6.43;;;0.80;99.90;;;;;;7830661;28;20205;-81
2023/03/06 05:36:22;;;;;;;11.50;6.17;;;0.70;99.90;;;;;;7846520;28;20176;-81
2023/03/06 05:40:09;;;;;;;12.13;5.93;;;0.80;99.90;;;;;;7833219;28;20178;-83
2023/03/06 05:43:55;;;;;;;11.53;5.70;;;0.70;99.90;;;;;;7869744;28;20186;-79
2023/03/06 05:47:41;;;;;;;14.13;7.07;;;0.90;99.90;;;;;;7834742;28;20218;-89
2023/03/06 05:51:27;;;;;;;11.93;6.50;;;0.90;99.90;;;;;;7820120;28;20273;-88
2023/03/06 05:55:12;;;;;;;14.13;6.67;;;0.70;99.90;;;;;;7817825;28;20628;-88
2023/03/06 05:58:58;;;;;;;10.13;5.97;;;0.80;99.90;;;;;;7824693;28;20197;-88
2023/03/06 06:02:44;;;;;;;11.33;6.13;;;0.70;99.90;;;;;;7840589;28;20559;-88
2023/03/06 06:06:30;;;;;;;14.30;6.30;;;0.60;99.90;;;;;;7815136;28;20229;-88
2023/03/06 06:10:16;;;;;;;12.03;6.77;;;0.60;99.90;;;;;;7809745;28;20225;-88
2023/03/06 06:14:02;;;;;;;12.80;7.43;;;0.60;99.90;;;;;;7829239;28;20205;-88
2023/03/06 06:17:47;;;;;;;15.07;8.13;;;0.70;99.90;;;;;;7826098;28;20246;-89
2023/03/06 06:21:33;;;;;;;14.37;6.90;;;0.60;99.90;;;;;;7843174;28;20190;-88
2023/03/06 06:25:19;;;;;;;16.23;7.33;;;0.60;99.90;;;;;;7840338;28;20206;-88
2023/03/06 06:29:20;;;;;;;15.40;7.70;;;0.60;99.90;;;;;;7838659;28;20198;-88
2023/03/06 06:33:06;;;;;;;15.60;7.30;;;0.60;99.90;;;;;;7839152;28;20805;-88
2023/03/06 06:36:53;;;;;;;13.80;7.20;;;0.70;99.90;;;;;;7838662;28;20552;-89
2023/03/06 06:40:38;;;;;;;14.17;7.43;;;0.70;99.90;;;;;;7842443;28;20175;-88
2023/03/06 06:44:24;;;;;;;14.70;7.47;;;0.70;99.90;;;;;;7838336;28;20193;-88
2023/03/06 06:48:10;;;;;;;14.50;7.40;;;0.70;99.90;;;;;;7839361;28;20193;-88
2023/03/06 06:51:56;;;;;;;13.77;7.43;;;0.80;99.90;;;;;;7839327;28;20178;-87
2023/03/06 06:55:41;;;;;;;19.30;7.80;;;0.80;99.90;;;;;;7837952;28;20185;-89
2023/03/06 06:59:27;;;;;;;15.97;8.10;;;0.80;99.90;;;;;;7837962;28;20212;-88
2023/03/06 07:03:13;;;;;;;16.47;7.30;;;0.90;99.90;;;;;;7837928;28;20201;-88
2023/03/06 07:06:59;;;;;;;19.60;8.10;;;0.80;99.90;;;;;;7838555;28;20193;-88
2023/03/06 07:10:45;;;;;;;19.50;7.43;;;0.90;99.90;;;;;;7838804;28;20192;-89
2023/03/06 07:14:31;;;;;;;18.77;9.30;;;0.90;99.90;;;;;;7837888;28;20206;-88
2023/03/06 07:18:16;;;;;;;19.17;9.03;;;1.10;99.90;;;;;;7837539;28;20206;-89
2023/03/06 07:22:03;;;;;;;15.27;7.30;;;1.00;99.90;;;;;;7837649;28;20177;-89
2023/03/06 07:25:49;;;;;;;17.37;7.40;;;0.90;99.90;;;;;;7837647;28;20174;-88
2023/03/06 07:29:35;;;;;;;17.93;8.53;;;1.00;99.90;;;;;;7838609;28;20197;-89
2023/03/06 07:33:20;;;;;;;15.67;7.83;;;0.90;99.90;;;;;;7837179;28;20221;-88
2023/03/06 07:37:06;;;;;;;17.87;7.53;;;1.00;99.90;;;;;;7837763;28;20174;-89
2023/03/06 07:40:52;;;;;;;16.87;7.83;;;1.00;99.90;;;;;;7836883;28;20774;-87
2023/03/06 07:44:39;;;;;;;18.37;8.10;;;1.00;99.90;;;;;;7873415;28;20222;-88
2023/03/06 07:48:25;;;;;;;17.40;8.40;;;1.10;99.90;;;;;;7838332;28;20208;-88
2023/03/06 07:52:11;;;;;;;14.93;7.40;;;1.10;99.90;;;;;;7836507;28;20183;-88
2023/03/06 07:55:57;;;;;;;18.00;7.67;;;1.10;99.90;;;;;;7836493;28;20174;-88
2023/03/06 07:59:42;;;;;;;20.07;8.23;;;1.10;99.90;;;;;;7837787;28;20174;-88
2023/03/06 08:03:28;;;;;;;16.23;8.13;;;1.20;99.90;;;;;;7836865;28;20728;-88
2023/03/06 08:07:14;;;;;;;16.33;7.87;;;1.20;99.90;;;;;;7837353;28;20347;-89
2023/03/06 08:10:59;;;;;;;25.70;9.13;;;1.20;99.90;;;;;;7836647;28;20174;-88
2023/03/06 08:14:45;;;;;;;19.20;8.27;;;1.30;99.90;;;;;;7836035;28;20190;-88
2023/03/06 08:18:31;;;;;;;15.23;7.73;;;1.40;99.90;;;;;;7836525;28;20547;-89
2023/03/06 08:22:16;;;;;;;15.97;8.00;;;1.40;99.90;;;;;;7837237;28;20202;-88
2023/03/06 08:26:24;;;;;;;18.10;8.07;;;1.40;99.90;;;;;;7828411;28;20187;-88
2023/03/06 08:30:11;;;;;;;15.93;8.13;;;1.50;99.90;;;;;;7832318;28;20608;-82
2023/03/06 08:34:00;;;;;;;16.13;8.33;;;1.60;99.90;;;;;;7828355;28;20225;-88
2023/03/06 08:37:45;;;;;;;15.40;8.07;;;1.60;99.90;;;;;;7841026;28;20174;-88
2023/03/06 08:41:31;;;;;;;17.63;8.60;;;1.70;99.90;;;;;;7841360;28;20297;-88
2023/03/06 08:45:17;;;;;;;18.17;8.83;;;1.70;99.90;;;;;;7840813;28;20198;-88
2023/03/06 08:49:02;;;;;;;18.70;9.67;;;1.80;99.90;;;;;;7842454;28;20194;-89
2023/03/06 08:52:48;;;;;;;16.40;8.03;;;1.80;99.90;;;;;;7833717;28;20309;-89
2023/03/06 08:56:34;;;;;;;16.73;9.30;;;1.80;99.90;;;;;;7840465;28;20178;-88
2023/03/06 09:00:19;;;;;;;20.47;9.83;;;1.90;99.90;;;;;;7842392;28;20175;-89
2023/03/06 09:04:10;;;;;;;15.90;8.70;;;1.90;99.90;;;;;;7840861;28;20206;-89
2023/03/06 09:07:56;;;;;;;20.47;10.10;;;1.90;99.90;;;;;;7841444;28;20198;-89
2023/03/06 09:11:41;;;;;;;21.63;10.00;;;2.00;99.90;;;;;;7840606;28;20228;-88
2023/03/06 09:15:27;;;;;;;17.70;8.70;;;2.00;99.90;;;;;;7841505;28;20201;-88
2023/03/06 09:19:16;;;;;;;19.00;9.27;;;2.00;99.90;;;;;;7842700;28;20221;-88
2023/03/06 09:23:02;;;;;;;18.93;8.70;;;2.00;99.90;;;;;;7841598;28;20209;-89
2023/03/06 09:26:47;;;;;;;16.20;8.10;;;2.20;99.90;;;;;;7840159;28;20177;-90
2023/03/06 09:30:33;;;;;;;16.23;8.10;;;2.00;99.90;;;;;;7841228;28;20300;-88
2023/03/06 09:34:19;;;;;;;15.60;8.10;;;2.00;99.90;;;;;;7836808;28;20198;-88
2023/03/06 09:38:04;;;;;;;21.33;8.97;;;2.20;99.90;;;;;;7812223;28;20718;-89
2023/03/06 09:41:51;;;;;;;18.60;9.10;;;2.10;99.90;;;;;;7858447;28;20204;-87
2023/03/06 09:45:36;;;;;;;17.13;8.57;;;2.10;99.90;;;;;;7859631;28;20205;-89
2023/03/06 09:49:43;;;;;;;18.83;8.70;;;2.10;99.90;;;;;;7839050;28;20364;-89
2023/03/06 09:54:25;;;;;;;19.10;9.27;;;2.20;99.90;;;;;;7835817;28;20213;-87
2023/03/06 09:58:20;;;;;;;19.43;9.67;;;2.30;99.90;;;;;;7819129;28;20207;-88
2023/03/06 10:02:32;;;;;;;21.47;9.73;;;2.30;99.90;;;;;;7836275;28;20193;-88
2023/03/06 10:06:29;;;;;;;18.07;9.07;;;2.40;99.90;;;;;;7819672;28;20277;-89
2023/03/06 10:10:21;;;;;;;23.33;11.80;;;2.40;99.90;;;;;;7819542;28;20217;-89
2023/03/06 10:14:25;;;;;;;20.10;9.60;;;2.50;99.90;;;;;;7818688;28;20289;-90
2023/03/06 10:18:11;;;;;;;21.33;9.87;;;2.50;99.90;;;;;;7817937;28;20273;-89
2023/03/06 10:22:30;;;;;;;21.13;10.03;;;2.70;99.90;;;;;;7834671;28;20252;-90
2023/03/06 10:26:21;;;;;;;17.27;9.60;;;2.70;99.90;;;;;;7835885;28;20801;-89
2023/03/06 10:30:37;;;;;;;22.57;10.60;;;2.80;99.90;;;;;;7817259;28;20197;-90
2023/03/06 10:34:34;;;;;;;22.77;10.07;;;2.90;99.90;;;;;;7838215;28;20621;-89
2023/03/06 10:38:37;;;;;;;20.10;10.40;;;2.90;99.90;;;;;;7838069;28;20551;-90
2023/03/06 10:42:23;;;;;;;24.17;10.17;;;2.90;99.90;;;;;;7836892;28;20225;-89
2023/03/06 10:46:24;;;;;;;24.43;11.73;;;2.80;99.90;;;;;;7837729;28;20185;-90
2023/03/06 10:50:29;;;;;;;22.70;10.23;;;2.80;99.90;;;;;;7837636;28;20217;-89
2023/03/06 10:54:18;;;;;;;68.17;28.43;;;2.80;99.90;;;;;;7836779;28;20206;-88
2023/03/06 10:58:26;;;;;;;24.97;12.00;;;2.80;99.90;;;;;;7836298;28;20201;-89
2023/03/06 11:02:26;;;;;;;20.37;10.93;;;2.80;99.90;;;;;;7830006;28;20309;-88
2023/03/06 11:06:31;;;;;;;22.93;11.33;;;2.80;99.90;;;;;;7808705;28;20186;-85
2023/03/06 11:10:18;;;;;;;23.27;10.97;;;3.00;99.90;;;;;;7815872;28;20216;-83
2023/03/06 11:14:16;;;;;;;25.80;13.53;;;3.10;99.90;;;;;;7839464;28;20190;-83
2023/03/06 11:18:06;;;;;;;31.17;14.98;;;3.20;99.90;;;;;;7836404;28;20805;-84
2023/03/06 11:22:15;;;;;;;22.47;11.40;;;3.30;99.90;;;;;;7838226;28;20192;-84
2023/03/06 11:26:13;;;;;;;25.23;15.10;;;3.30;99.90;;;;;;7837854;28;20411;-83
2023/03/06 11:30:02;;;;;;;20.57;11.27;;;3.40;99.90;;;;;;7839181;28;20228;-84
2023/03/06 11:33:57;;;;;;;22.37;10.90;;;3.30;99.90;;;;;;7841181;28;20324;-84
2023/03/06 11:37:54;;;;;;;24.70;11.93;;;3.40;99.90;;;;;;7841396;28;20170;-84
2023/03/06 11:42:13;;;;;;;34.37;16.23;;;3.20;99.90;;;;;;7865293;28;20162;-83
2023/03/06 11:46:04;;;;;;;27.60;13.63;;;3.10;99.90;;;;;;7836904;28;20667;-91
2023/03/06 11:50:10;;;;;;;27.53;12.80;;;3.10;99.90;;;;;;7818577;28;20211;-92
2023/03/06 11:54:01;;;;;;;23.30;11.90;;;3.00;99.90;;;;;;7835657;28;20305;-92
2023/03/06 11:57:59;;;;;;;24.80;13.03;;;2.90;99.90;;;;;;7831797;28;20202;-92
2023/03/06 12:01:50;;;;;;;25.63;13.17;;;2.80;99.90;;;;;;7812772;28;20217;-92
2023/03/06 12:06:09;;;;;;;29.23;13.20;;;2.70;99.90;;;;;;7812497;28;20213;-92
2023/03/06 12:10:26;;;;;;;25.93;12.90;;;2.70;99.90;;;;;;7812754;28;20222;-92
2023/03/06 12:14:21;;;;;;;26.00;13.57;;;2.70;99.90;;;;;;7813010;28;20209;-93
2023/03/06 12:18:37;;;;;;;24.00;13.30;;;2.80;99.90;;;;;;7812781;28;20181;-92
2023/03/06 12:22:51;;;;;;;26.33;13.83;;;2.80;99.90;;;;;;7812003;28;20202;-92
2023/03/06 12:27:18;;;;;;;28.13;13.30;;;2.80;99.90;;;;;;7812231;28;20266;-92
2023/03/06 12:31:22;;;;;;;29.97;14.07;;;2.90;99.90;;;;;;7812688;28;20210;-91
2023/03/06 12:35:21;;;;;;;29.63;14.53;;;2.90;99.90;;;;;;7812756;28;20289;-92
2023/03/06 12:39:21;;;;;;;32.50;13.87;;;3.00;99.90;;;;;;7815998;28;20253;-90
2023/03/06 12:43:43;;;;;;;29.57;14.20;;;3.20;99.90;;;;;;7832297;28;20197;-93
2023/03/06 12:48:19;;;;;;;29.33;13.83;;;3.10;99.90;;;;;;7841272;28;20184;-91
2023/03/06 12:52:14;;;;;;;29.27;14.07;;;3.20;99.90;;;;;;7823159;28;20571;-92
2023/03/06 12:56:01;;;;;;;28.07;13.93;;;3.20;99.90;;;;;;7809319;28;20213;-91
2023/03/06 12:59:48;;;;;;;27.57;13.23;;;3.20;99.90;;;;;;7825373;28;20197;-92
2023/03/06 13:04:11;;;;;;;25.53;14.03;;;3.20;99.90;;;;;;7818142;28;20680;-92
2023/03/06 13:08:11;;;;;;;29.97;14.23;;;3.10;99.90;;;;;;7825180;28;20206;-92
2023/03/06 13:12:53;;;;;;;26.83;14.30;;;3.00;99.90;;;;;;7817645;28;20269;-92
2023/03/06 13:16:38;;;;;;;25.17;13.83;;;2.80;99.90;;;;;;7814682;28;20190;-92
2023/03/06 13:20:44;;;;;;;25.13;13.47;;;2.80;99.90;;;;;;7816338;28;20659;-92
2023/03/06 13:24:32;;;;;;;28.53;14.23;;;2.90;99.90;;;;;;7822635;28;20205;-91
2023/03/06 13:28:25;;;;;;;26.57;12.83;;;3.00;99.90;;;;;;7821003;28;20263;-92
2023/03/06 13:32:17;;;;;;;26.30;12.27;;;2.90;99.90;;;;;;7825331;28;20182;-93
2023/03/06 13:36:27;;;;;;;24.13;12.23;;;2.90;99.90;;;;;;7823492;28;20265;-92
2023/03/06 13:40:31;;;;;;;22.20;11.90;;;2.70;99.90;;;;;;7862396;28;20245;-91
2023/03/06 13:44:39;;;;;;;26.27;15.60;;;2.50;99.90;;;;;;7830359;28;20283;-92
2023/03/06 13:48:34;;;;;;;24.63;11.13;;;2.50;99.90;;;;;;7835461;28;20236;-92
2023/03/06 13:52:32;;;;;;;23.33;12.07;;;2.40;99.90;;;;;;7823865;28;20247;-92
2023/03/06 13:56:21;;;;;;;23.23;12.03;;;2.30;99.90;;;;;;7820985;28;20278;-92
2023/03/06 14:00:18;;;;;;;23.40;11.63;;;2.40;99.90;;;;;;7819134;28;20507;-89
2023/03/06 14:04:32;;;;;;;21.80;12.07;;;2.40;99.90;;;;;;7822958;28;20202;-92
2023/03/06 14:08:20;;;;;;;26.37;12.80;;;2.40;99.90;;;;;;7848220;28;20255;-91
2023/03/06 14:12:19;;;;;;;27.23;13.33;;;2.40;99.90;;;;;;7828743;28;20178;-92
2023/03/06 14:16:16;;;;;;;26.07;13.50;;;2.50;99.90;;;;;;7838532;28;20178;-92
2023/03/06 14:20:48;;;;;;;28.17;14.00;;;2.80;99.90;;;;;;7837224;28;20306;-90
2023/03/06 14:24:40;;;;;;;25.43;13.13;;;2.70;99.90;;;;;;7818452;28;20566;-88
2023/03/06 14:28:30;;;;;;;27.10;12.87;;;2.70;99.90;;;;;;7820470;28;20213;-85
2023/03/06 14:32:20;;;;;;;23.30;11.73;;;2.90;99.90;;;;;;7835909;28;20214;-87
2023/03/06 14:36:06;;;;;;;22.33;11.17;;;3.00;99.90;;;;;;7827931;28;20194;-91
2023/03/06 14:39:54;;;;;;;29.53;15.93;;;2.90;99.90;;;;;;7825439;28;20205;-91
2023/03/06 14:43:41;;;;;;;22.10;11.80;;;2.90;99.90;;;;;;7829492;28;20205;-91
2023/03/06 14:47:37;;;;;;;24.50;12.03;;;2.90;99.90;;;;;;7836317;28;20190;-91
2023/03/06 14:51:27;;;;;;;24.83;12.17;;;2.90;99.90;;;;;;7824567;28;20193;-91
2023/03/06 14:55:20;;;;;;;19.70;11.27;;;2.90;99.90;;;;;;7832144;28;20305;-89
2023/03/06 14:59:11;;;;;;;23.17;11.80;;;2.90;99.90;;;;;;7836728;28;20190;-92
2023/03/06 15:03:04;;;;;;;21.03;11.43;;;2.90;99.90;;;;;;7827973;28;20205;-92
2023/03/06 15:06:51;;;;;;;24.47;11.87;;;3.00;99.90;;;;;;7817366;28;20191;-91
2023/03/06 15:10:58;;;;;;;23.67;11.83;;;2.90;99.90;;;;;;7838357;28;20201;-91
2023/03/06 15:14:57;;;;;;;21.07;11.53;;;2.90;99.90;;;;;;7832883;28;20237;-92
2023/03/06 15:19:03;;;;;;;24.33;12.07;;;3.00;99.90;;;;;;7817722;28;20185;-91
2023/03/06 15:22:49;;;;;;;24.13;12.27;;;3.00;99.90;;;;;;7837859;28;20206;-91
2023/03/06 15:27:15;;;;;;;24.03;12.37;;;3.00;99.90;;;;;;7831619;28;20193;-92
2023/03/06 15:31:29;;;;;;;23.23;11.40;;;3.10;99.90;;;;;;7831232;28;20209;-92
2023/03/06 15:35:34;;;;;;;25.93;13.23;;;3.10;99.90;;;;;;7837955;28;20289;-91
2023/03/06 15:39:39;;;;;;;25.37;12.53;;;3.20;99.90;;;;;;7876671;28;20241;-90
2023/03/06 15:43:25;;;;;;;23.00;12.47;;;3.10;99.90;;;;;;7827368;28;20214;-91
2023/03/06 15:47:13;;;;;;;21.93;12.30;;;3.20;99.90;;;;;;7832003;28;20177;-91
2023/03/06 15:50:59;;;;;;;22.03;11.63;;;3.20;99.90;;;;;;7840807;28;20584;-92
2023/03/06 15:54:48;;;;;;;21.00;11.23;;;3.30;99.90;;;;;;7832066;28;20225;-91
2023/03/06 15:58:34;;;;;;;23.50;11.10;;;3.20;99.90;;;;;;7821344;28;20187;-91
2023/03/06 16:02:22;;;;;;;22.67;12.93;;;3.20;99.90;;;;;;7833432;28;20288;-91
2023/03/06 16:06:26;;;;;;;21.73;11.37;;;3.20;99.90;;;;;;7825832;28;20185;-92
2023/03/06 16:10:37;;;;;;;20.33;10.37;;;3.20;99.90;;;;;;7836034;28;20206;-91
2023/03/06 16:14:23;;;;;;;18.97;10.10;;;3.20;99.90;;;;;;7822710;28;20198;-91
2023/03/06 16:18:11;;;;;;;17.93;9.80;;;3.20;99.90;;;;;;7817537;28;20186;-91
2023/03/06 16:22:13;;;;;;;17.10;8.90;;;3.10;99.90;;;;;;7845535;28;20193;-91
2023/03/06 16:25:59;;;;;;;17.77;10.40;;;3.20;99.90;;;;;;7835098;28;20221;-91
2023/03/06 16:29:45;;;;;;;17.77;9.90;;;3.00;99.90;;;;;;7838205;28;20225;-91
2023/03/06 16:34:20;;;;;;;16.00;9.20;;;2.60;99.90;;;;;;7842088;28;20209;-92
2023/03/06 16:38:06;;;;;;;16.93;8.97;;;2.50;99.90;;;;;;7811527;28;20186;-91
2023/03/06 16:41:52;;;;;;;16.03;9.47;;;2.40;99.90;;;;;;7842484;28;20655;-92
2023/03/06 16:45:41;;;;;;;12.70;7.80;;;2.30;99.90;;;;;;7842217;28;20182;-92
2023/03/06 16:49:26;;;;;;;13.73;8.70;;;2.30;99.90;;;;;;7841268;28;20753;-92
2023/03/06 16:53:25;;;;;;;19.20;10.83;;;2.30;99.90;;;;;;7843340;28;20619;-92
2023/03/06 16:57:13;;;;;;;15.50;9.37;;;2.30;99.90;;;;;;7843667;28;20170;-92
2023/03/06 17:00:59;;;;;;;16.23;9.43;;;2.20;99.90;;;;;;7844086;28;20189;-92
2023/03/06 17:04:46;;;;;;;14.87;8.93;;;2.20;99.90;;;;;;7838005;28;20281;-92
2023/03/06 17:08:32;;;;;;;13.73;8.53;;;2.10;99.90;;;;;;7812577;28;20368;-92
2023/03/06 17:12:21;;;;;;;14.53;7.97;;;2.00;99.90;;;;;;7831506;28;20249;-93
2023/03/06 17:16:47;;;;;;;12.80;8.07;;;2.00;99.90;;;;;;7853670;28;20170;-92
2023/03/06 17:20:33;;;;;;;15.07;8.53;;;2.10;99.90;;;;;;7832771;28;20225;-88
2023/03/06 17:24:19;;;;;;;17.20;9.50;;;2.10;99.90;;;;;;7829149;28;20213;-88
2023/03/06 17:28:05;;;;;;;17.57;9.40;;;2.10;99.90;;;;;;7826660;28;20210;-90
2023/03/06 17:31:51;;;;;;;16.90;9.00;;;2.00;99.90;;;;;;7831761;28;20243;-86
2023/03/06 17:36:13;;;;;;;18.00;9.77;;;2.10;99.90;;;;;;7855710;28;20194;-91
2023/03/06 17:39:58;;;;;;;19.40;9.80;;;2.10;99.90;;;;;;7864546;28;20615;-92
2023/03/06 17:43:44;;;;;;;17.90;9.83;;;2.00;99.90;;;;;;7852669;28;20198;-93
2023/03/06 17:47:30;;;;;;;14.70;9.17;;;2.00;99.90;;;;;;7823125;28;20194;-93
2023/03/06 17:51:15;;;;;;;18.73;9.87;;;2.00;99.90;;;;;;7824123;28;20258;-93
2023/03/06 17:55:01;;;;;;;16.40;8.67;;;2.00;99.90;;;;;;7841648;28;20205;-92
2023/03/06 17:58:56;;;;;;;17.43;9.23;;;1.80;99.90;;;;;;7841217;28;20185;-93
2023/03/06 18:02:44;;;;;;;15.90;8.23;;;1.90;99.90;;;;;;7841288;28;20228;-93
2023/03/06 18:06:49;;;;;;;16.10;8.37;;;1.80;99.90;;;;;;7841249;28;20178;-93
2023/03/06 18:10:42;;;;;;;17.50;8.60;;;1.90;99.90;;;;;;7841243;28;20232;-93
2023/03/06 18:14:30;;;;;;;18.03;8.90;;;1.80;99.90;;;;;;7841004;28;20671;-92
2023/03/06 18:18:21;;;;;;;14.20;8.90;;;1.90;99.90;;;;;;7841243;28;20269;-92
2023/03/06 18:22:07;;;;;;;16.90;8.30;;;1.90;99.90;;;;;;7841898;28;20167;-92
2023/03/06 18:26:25;;;;;;;19.50;10.13;;;1.90;99.90;;;;;;7841617;28;20181;-92
2023/03/06 18:30:11;;;;;;;16.87;9.13;;;1.90;99.90;;;;;;7841921;28;20198;-92
2023/03/06 18:33:59;;;;;;;18.70;9.33;;;1.90;99.90;;;;;;7841730;28;20202;-92
2023/03/06 18:37:45;;;;;;;17.73;8.67;;;1.90;99.90;;;;;;7837514;28;20193;-93
2023/03/06 18:41:40;;;;;;;17.13;9.27;;;1.90;99.90;;;;;;7809943;28;20178;-93
2023/03/06 18:45:26;;;;;;;17.97;8.87;;;1.80;99.90;;;;;;7833431;28;20193;-92
2023/03/06 18:49:15;;;;;;;15.17;8.90;;;1.80;99.90;;;;;;7841068;28;20198;-92
2023/03/06 18:53:17;;;;;;;17.20;9.10;;;1.90;99.90;;;;;;7840005;28;20198;-92
2023/03/06 18:57:03;;;;;;;20.67;10.00;;;1.80;99.90;;;;;;7842151;28;20651;-93
2023/03/06 19:00:49;;;;;;;17.80;8.63;;;1.70;99.90;;;;;;7847350;28;20559;-92
2023/03/06 19:04:36;;;;;;;17.63;9.03;;;1.70;99.90;;;;;;7865819;28;20193;-93
2023/03/06 19:08:22;;;;;;;19.83;9.60;;;1.60;99.90;;;;;;7839781;28;20205;-92
2023/03/06 19:12:07;;;;;;;18.87;10.00;;;1.80;99.90;;;;;;7841080;28;20177;-92
2023/03/06 19:15:55;;;;;;;21.47;10.17;;;1.60;99.90;;;;;;7836818;28;20186;-93
2023/03/06 19:19:41;;;;;;;20.63;10.33;;;1.80;99.90;;;;;;7828856;28;20635;-92
2023/03/06 19:23:27;;;;;;;20.50;9.87;;;1.70;99.90;;;;;;7841062;28;20225;-92
2023/03/06 19:27:12;;;;;;;30.73;14.57;;;1.60;99.90;;;;;;7837797;28;20189;-92
2023/03/06 19:30:58;;;;;;;21.90;10.50;;;1.60;99.90;;;;;;7838216;28;20201;-92
2023/03/06 19:34:47;;;;;;;21.27;10.47;;;1.70;99.90;;;;;;7830597;28;20266;-92
2023/03/06 19:38:33;;;;;;;18.67;9.67;;;1.80;99.90;;;;;;7831341;28;20273;-92
2023/03/06 19:42:19;;;;;;;20.93;9.90;;;1.70;99.90;;;;;;7808005;28;20198;-92
2023/03/06 19:46:05;;;;;;;18.57;9.27;;;1.70;99.90;;;;;;7809174;28;20556;-92
2023/03/06 19:49:50;;;;;;;21.20;9.90;;;1.80;99.90;;;;;;7807991;28;20242;-93
2023/03/06 19:53:37;;;;;;;17.50;9.10;;;1.70;99.90;;;;;;7818438;28;20198;-92
2023/03/06 19:57:23;;;;;;;18.77;8.97;;;1.80;99.90;;;;;;7807285;28;20182;-92
2023/03/06 20:01:18;;;;;;;20.57;10.50;;;1.80;99.90;;;;;;7807435;28;20699;-91
2023/03/06 20:05:04;;;;;;;21.87;10.33;;;1.70;99.90;;;;;;7807164;28;20190;-92